Time;durP1;ratioP1;P1;durP2;ratioP2;P2;SDS_P1;SDS_P2;PMS_P1;PMS_P2;Temp;Humidity;BMP_temperature;BMP_pressure;BME280_temperature;BME280_humidity;BME280_pressure;Samples;Min_cycle;Max_cycle;Signal;HPM_P1;HPM_P2
2023/04/30 00:02:22;;;;;;;10.80;9.60;;;;;;;12.59;71.49;100265.30;105638;277;40250;-73
2023/04/30 00:04:56;;;;;;;11.50;10.40;;;;;;;12.60;71.60;100267.13;105629;275;39446;-74
2023/04/30 00:07:31;;;;;;;12.20;10.90;;;;;;;12.57;71.98;100266.76;105647;277;38433;-74
2023/04/30 00:10:06;;;;;;;12.40;10.60;;;;;;;12.56;72.41;100266.81;106041;277;39378;-73
2023/04/30 00:12:40;;;;;;;12.50;10.90;;;;;;;12.54;72.44;100265.84;106007;277;38540;-73
2023/04/30 00:15:14;;;;;;;12.10;10.40;;;;;;;12.54;72.82;100267.45;105625;277;39309;-73
2023/04/30 00:17:48;;;;;;;11.70;10.50;;;;;;;12.54;72.86;100270.07;105517;277;171824;-73
2023/04/30 00:20:23;;;;;;;11.60;10.40;;;;;;;12.56;72.58;100267.02;105664;277;39613;-73
2023/04/30 00:22:57;;;;;;;13.20;11.30;;;;;;;12.56;72.90;100267.02;105629;277;38877;-73
2023/04/30 00:25:31;;;;;;;13.70;11.90;;;;;;;12.52;73.12;100270.49;105621;277;39694;-73
2023/04/30 00:28:05;;;;;;;13.00;10.90;;;;;;;12.48;73.43;100267.20;105646;277;38792;-73
2023/04/30 00:30:39;;;;;;;10.90;9.90;;;;;;;12.47;73.55;100270.23;105615;277;39481;-74
2023/04/30 00:33:13;;;;;;;13.10;11.70;;;;;;;12.47;73.46;100273.57;105662;277;39439;-74
2023/04/30 00:35:47;;;;;;;17.30;12.80;;;;;;;12.45;73.68;100277.32;105633;277;39510;-73
2023/04/30 00:38:22;;;;;;;14.60;13.00;;;;;;;12.44;73.98;100276.85;105621;277;38587;-73
2023/04/30 00:40:56;;;;;;;15.40;12.80;;;;;;;12.42;74.19;100277.45;106027;277;40428;-73
2023/04/30 00:43:30;;;;;;;16.10;13.10;;;;;;;12.41;74.26;100278.56;106030;277;40140;-73
2023/04/30 00:46:05;;;;;;;14.30;12.90;;;;;;;12.41;74.51;100278.54;105577;277;39678;-73
2023/04/30 00:48:39;;;;;;;15.30;13.30;;;;;;;12.39;74.47;100278.82;105605;277;38387;-73
2023/04/30 00:51:16;;;;;;;16.40;13.10;;;;;;;12.36;74.44;100278.79;105608;277;38392;-74
2023/04/30 00:53:50;;;;;;;14.90;13.20;;;;;;;12.34;74.23;100279.92;106033;277;38510;-74
2023/04/30 00:56:24;;;;;;;16.40;14.60;;;;;;;12.35;74.45;100281.45;105601;277;38362;-73
2023/04/30 00:58:58;;;;;;;18.90;14.90;;;;;;;12.39;74.38;100285.66;105586;277;38488;-73
2023/04/30 01:01:32;;;;;;;20.10;16.90;;;;;;;12.40;74.53;100284.52;106040;277;38834;-74
2023/04/30 01:04:06;;;;;;;19.30;16.90;;;;;;;12.43;74.48;100285.11;105616;277;38277;-75
2023/04/30 01:06:40;;;;;;;20.30;15.70;;;;;;;12.44;74.50;100284.02;105585;274;38807;-74
2023/04/30 01:09:14;;;;;;;17.60;15.30;;;;;;;12.45;74.46;100282.73;105552;277;39789;-74
2023/04/30 01:11:56;;;;;;;17.30;15.10;;;;;;;12.47;74.66;100280.38;105563;277;39386;-74
2023/04/30 01:14:34;;;;;;;18.20;16.30;;;;;;;12.50;74.73;100281.11;105570;277;39376;-73
2023/04/30 01:17:16;;;;;;;20.80;16.30;;;;;;;12.51;74.61;100279.48;105597;277;39402;-74
2023/04/30 01:19:50;;;;;;;19.60;15.70;;;;;;;12.53;74.33;100283.08;105611;277;39389;-73
2023/04/30 01:22:46;;;;;;;17.20;14.30;;;;;;;12.52;74.42;100285.40;105361;278;39648;-73
2023/04/30 01:25:51;;;;;;;16.50;14.50;;;;;;;12.51;74.55;100288.39;105321;277;38803;-75
2023/04/30 01:28:24;;;;;;;16.70;15.00;;;;;;;12.52;74.28;100292.92;105593;277;39660;-75
2023/04/30 01:30:58;;;;;;;19.20;15.20;;;;;;;12.52;74.50;100292.55;105582;277;38233;-73
2023/04/30 01:33:32;;;;;;;17.30;15.20;;;;;;;12.50;74.25;100294.77;105590;277;38594;-73
2023/04/30 01:36:34;;;;;;;18.00;14.60;;;;;;;12.51;74.30;100292.63;105183;277;536798;-74
2023/04/30 01:39:29;;;;;;;17.20;14.70;;;;;;;12.49;73.99;100292.70;105625;277;40147;-75
2023/04/30 01:42:11;;;;;;;17.20;14.80;;;;;;;12.48;74.14;100297.81;105660;277;38254;-73
2023/04/30 01:45:16;;;;;;;21.20;15.80;;;;;;;12.49;74.06;100297.61;105438;278;38361;-74
2023/04/30 01:47:56;;;;;;;17.70;14.90;;;;;;;12.47;74.43;100295.96;105360;278;39726;-74
2023/04/30 01:50:41;;;;;;;15.70;14.10;;;;;;;12.47;74.11;100297.00;105831;279;38548;-74
2023/04/30 01:53:20;;;;;;;17.10;15.10;;;;;;;12.50;74.29;100300.20;105815;278;38394;-74
2023/04/30 01:55:55;;;;;;;;;;;;;;;12.51;74.13;100302.76;105877;278;38641;-74
2023/04/30 01:58:29;;;;;;;16.90;15.10;;;;;;;12.47;73.92;100308.73;105426;278;38268;-74
2023/04/30 02:01:03;;;;;;;17.60;15.00;;;;;;;12.47;74.23;100308.88;105829;278;39066;-73
2023/04/30 02:03:37;;;;;;;18.80;14.90;;;;;;;12.46;74.19;100312.61;105408;278;39924;-73
2023/04/30 02:06:11;;;;;;;16.60;13.80;;;;;;;12.47;74.35;100315.55;105442;278;39786;-74
2023/04/30 02:08:45;;;;;;;15.90;13.10;;;;;;;12.50;74.43;100313.84;105855;279;39695;-74
2023/04/30 02:11:19;;;;;;;18.80;13.60;;;;;;;12.49;74.39;100316.12;105405;279;38351;-73
2023/04/30 02:13:52;;;;;;;15.70;13.30;;;;;;;12.51;74.50;100317.27;105815;279;38527;-73
2023/04/30 02:16:26;;;;;;;20.50;14.20;;;;;;;12.52;74.51;100318.63;105422;278;38676;-74
2023/04/30 02:19:00;;;;;;;16.20;12.60;;;;;;;12.54;74.63;100319.92;105439;278;39870;-74
2023/04/30 02:21:34;;;;;;;16.00;12.90;;;;;;;12.56;74.62;100323.52;105435;279;38260;-73
2023/04/30 02:24:08;;;;;;;15.70;12.30;;;;;;;12.58;74.65;100320.63;105416;278;39382;-73
2023/04/30 02:26:42;;;;;;;15.30;12.10;;;;;;;12.59;74.55;100325.46;105402;279;38569;-73
2023/04/30 02:29:16;;;;;;;15.80;12.20;;;;;;;12.60;74.58;100328.39;105441;279;38814;-73
2023/04/30 02:31:50;;;;;;;13.10;11.00;;;;;;;12.58;74.49;100329.70;105402;278;38979;-74
2023/04/30 02:34:25;;;;;;;13.50;11.20;;;;;;;12.59;74.44;100334.23;105430;279;39522;-74
2023/04/30 02:36:59;;;;;;;12.10;10.80;;;;;;;12.60;74.51;100342.40;105243;279;38259;-74
2023/04/30 02:39:32;;;;;;;12.60;11.10;;;;;;;12.60;74.52;100344.31;105430;278;39669;-73
2023/04/30 02:42:06;;;;;;;13.30;11.10;;;;;;;12.57;74.79;100346.04;105420;267;38580;-73
2023/04/30 02:44:40;;;;;;;11.20;10.10;;;;;;;12.57;75.23;100351.61;105596;266;39091;-74
2023/04/30 02:47:15;;;;;;;11.50;10.40;;;;;;;12.54;74.99;100356.00;105638;277;38292;-74
2023/04/30 02:49:49;;;;;;;12.40;11.20;;;;;;;12.50;74.96;100359.48;106024;277;38707;-74
2023/04/30 02:52:22;;;;;;;11.90;10.80;;;;;;;12.47;75.25;100364.39;105644;277;38512;-74
2023/04/30 02:54:56;;;;;;;16.00;11.90;;;;;;;12.40;75.00;100371.15;105645;277;39668;-73
2023/04/30 02:57:30;;;;;;;13.30;11.10;;;;;;;12.37;74.80;100375.83;105596;277;39632;-73
2023/04/30 03:00:06;;;;;;;15.30;12.20;;;;;;;12.33;74.78;100380.56;105637;277;38480;-73
2023/04/30 03:02:39;;;;;;;14.40;12.60;;;;;;;12.28;74.60;100383.41;105637;277;38427;-73
2023/04/30 03:05:15;;;;;;;15.00;13.50;;;;;;;12.23;74.54;100383.65;106028;277;39614;-75
2023/04/30 03:07:49;;;;;;;15.50;12.50;;;;;;;12.20;74.31;100385.70;105368;277;38234;-75
2023/04/30 03:10:23;;;;;;;13.60;11.90;;;;;;;12.21;74.28;100391.09;106019;277;38408;-74
2023/04/30 03:12:57;;;;;;;14.30;11.80;;;;;;;12.23;74.11;100391.34;105359;277;38477;-74
2023/04/30 03:15:31;;;;;;;16.00;12.30;;;;;;;12.22;74.21;100395.05;105375;277;38666;-74
2023/04/30 03:18:04;;;;;;;13.20;11.80;;;;;;;12.17;74.33;100396.30;105984;277;38835;-74
2023/04/30 03:20:38;;;;;;;12.10;10.80;;;;;;;12.11;74.11;100399.91;105275;277;38834;-74
2023/04/30 03:23:12;;;;;;;12.10;10.50;;;;;;;12.08;74.32;100399.15;105352;279;38649;-74
2023/04/30 03:25:46;;;;;;;11.60;10.50;;;;;;;12.03;74.12;100405.65;105664;277;38510;-74
2023/04/30 03:28:20;;;;;;;12.50;10.50;;;;;;;12.00;73.97;100408.94;105014;277;900344;-74
2023/04/30 03:30:54;;;;;;;11.50;10.40;;;;;;;11.99;73.77;100414.23;105548;266;174378;-75
2023/04/30 03:33:28;;;;;;;12.40;11.10;;;;;;;11.92;73.13;100418.05;106021;277;40315;-75
2023/04/30 03:36:02;;;;;;;12.20;11.00;;;;;;;11.77;73.02;100426.86;105681;277;38479;-74
2023/04/30 03:38:35;;;;;;;14.20;11.00;;;;;;;11.62;73.18;100436.40;106017;277;39419;-75
2023/04/30 03:41:10;;;;;;;12.00;10.50;;;;;;;11.48;73.18;100440.63;105299;277;189299;-74
2023/04/30 03:43:43;;;;;;;11.10;10.00;;;;;;;11.42;73.34;100444.40;106044;277;38724;-74
2023/04/30 03:46:17;;;;;;;11.20;10.20;;;;;;;11.33;73.20;100445.42;105631;277;39580;-74
2023/04/30 03:48:51;;;;;;;12.70;10.40;;;;;;;11.27;73.29;100449.68;105636;277;38419;-74
2023/04/30 03:51:27;;;;;;;11.50;10.40;;;;;;;11.19;73.12;100454.70;105394;277;39602;-74
2023/04/30 03:54:01;;;;;;;9.70;8.70;;;;;;;11.13;72.91;100458.77;106075;277;38569;-74
2023/04/30 03:56:35;;;;;;;10.30;7.00;;;;;;;11.06;72.05;100463.77;106048;277;38543;-72
2023/04/30 03:59:08;;;;;;;8.20;7.00;;;;;;;11.01;71.53;100466.25;105630;277;39679;-72
2023/04/30 04:01:42;;;;;;;7.30;6.60;;;;;;;10.96;71.00;100467.30;105621;277;39630;-73
2023/04/30 04:04:16;;;;;;;9.50;7.30;;;;;;;10.90;70.50;100476.79;105662;277;38740;-72
2023/04/30 04:06:50;;;;;;;9.00;7.40;;;;;;;10.82;70.47;100484.05;106049;277;39704;-72
2023/04/30 04:09:24;;;;;;;11.70;7.70;;;;;;;10.73;70.70;100494.49;106047;277;38247;-72
2023/04/30 04:11:58;;;;;;;8.00;6.90;;;;;;;10.65;70.69;100499.69;106036;277;38739;-74
2023/04/30 04:14:31;;;;;;;9.40;7.00;;;;;;;10.59;71.07;100502.19;105610;277;39271;-74
2023/04/30 04:17:05;;;;;;;10.30;8.40;;;;;;;10.58;71.46;100506.40;105626;277;38233;-74
2023/04/30 04:19:39;;;;;;;10.20;8.50;;;;;;;10.57;71.85;100513.09;105678;277;39075;-73
2023/04/30 04:22:13;;;;;;;10.40;8.00;;;;;;;10.55;71.95;100512.75;105640;277;38257;-73
2023/04/30 04:24:47;;;;;;;15.10;9.00;;;;;;;10.53;71.81;100515.30;105378;278;38355;-73
2023/04/30 04:27:22;;;;;;;9.50;7.50;;;;;;;10.50;71.43;100515.41;105611;277;38795;-72
2023/04/30 04:29:56;;;;;;;11.20;7.90;;;;;;;10.49;71.15;100518.43;105630;277;38986;-74
2023/04/30 04:32:31;;;;;;;8.70;6.90;;;;;;;10.50;71.17;100520.64;105631;277;39421;-74
2023/04/30 04:35:06;;;;;;;10.90;7.40;;;;;;;10.55;70.93;100527.09;105625;277;38566;-74
2023/04/30 04:37:42;;;;;;;11.00;7.60;;;;;;;10.55;70.79;100534.39;105644;277;38518;-74
2023/04/30 04:40:16;;;;;;;9.10;8.10;;;;;;;10.57;70.81;100535.20;105664;277;38490;-73
2023/04/30 04:42:52;;;;;;;9.50;7.90;;;;;;;10.57;70.84;100540.80;105623;277;39192;-73
2023/04/30 04:45:26;;;;;;;9.00;7.60;;;;;;;10.59;71.01;100545.95;105652;277;38237;-74
2023/04/30 04:48:00;;;;;;;9.70;7.50;;;;;;;10.60;70.58;100550.82;105650;277;38350;-74
2023/04/30 04:50:35;;;;;;;8.20;7.30;;;;;;;10.61;70.81;100550.26;105367;277;38366;-74
2023/04/30 04:53:08;;;;;;;10.60;8.00;;;;;;;10.66;70.90;100554.45;105609;277;38768;-74
2023/04/30 04:55:42;;;;;;;8.90;7.70;;;;;;;10.67;70.74;100559.45;106067;277;39709;-74
2023/04/30 04:58:16;;;;;;;9.60;8.50;;;;;;;10.68;70.78;100561.88;105575;277;38442;-74
2023/04/30 05:00:50;;;;;;;13.00;8.60;;;;;;;10.69;70.53;100564.98;106014;277;40256;-74
2023/04/30 05:03:24;;;;;;;12.50;8.20;;;;;;;10.70;70.46;100567.38;105606;277;39398;-74
2023/04/30 05:05:58;;;;;;;10.40;8.20;;;;;;;10.70;70.30;100568.06;105585;277;38705;-74
2023/04/30 05:08:32;;;;;;;11.20;8.70;;;;;;;10.74;70.13;100574.59;105596;277;40042;-74
2023/04/30 05:11:05;;;;;;;12.20;8.70;;;;;;;10.77;70.18;100574.80;105615;277;38599;-74
2023/04/30 05:13:40;;;;;;;10.10;8.60;;;;;;;10.81;70.18;100581.96;105648;277;38462;-74
2023/04/30 05:16:14;;;;;;;9.90;8.90;;;;;;;10.87;70.22;100582.84;105972;293;39551;-74
2023/04/30 05:18:47;;;;;;;11.10;9.20;;;;;;;10.92;70.09;100590.70;105516;277;38224;-74
2023/04/30 05:21:21;;;;;;;12.50;9.40;;;;;;;10.94;69.85;100593.41;106013;277;38261;-73
2023/04/30 05:23:55;;;;;;;11.80;9.50;;;;;;;10.96;69.80;100597.14;105614;277;39951;-73
2023/04/30 05:26:29;;;;;;;12.20;9.00;;;;;;;11.03;69.73;100602.52;106016;277;38792;-73
2023/04/30 05:29:03;;;;;;;11.00;9.00;;;;;;;11.12;69.82;100605.31;105615;277;40086;-73
2023/04/30 05:31:37;;;;;;;14.30;10.20;;;;;;;11.22;69.56;100606.70;105619;277;38780;-73
2023/04/30 05:34:11;;;;;;;11.50;9.50;;;;;;;11.33;69.48;100613.11;106036;277;39838;-73
2023/04/30 05:36:45;;;;;;;10.90;9.40;;;;;;;11.38;69.02;100612.40;106058;277;41190;-74
2023/04/30 05:39:19;;;;;;;13.10;10.40;;;;;;;11.44;69.08;100614.46;106006;277;38434;-74
2023/04/30 05:41:54;;;;;;;11.90;10.60;;;;;;;11.48;68.82;100617.27;105587;277;38470;-73
2023/04/30 05:44:29;;;;;;;13.50;10.80;;;;;;;11.55;69.05;100621.88;105566;277;38461;-74
2023/04/30 05:47:03;;;;;;;15.30;10.90;;;;;;;11.61;68.88;100624.08;105557;277;38411;-74
2023/04/30 05:49:37;;;;;;;11.90;10.50;;;;;;;11.67;68.77;100628.26;105584;277;38233;-74
2023/04/30 05:52:11;;;;;;;12.20;10.50;;;;;;;11.72;68.78;100633.80;105602;277;39096;-74
2023/04/30 05:54:47;;;;;;;14.40;11.60;;;;;;;11.75;68.35;100635.43;105997;277;40017;-74
2023/04/30 05:57:21;;;;;;;15.40;11.80;;;;;;;11.78;68.38;100638.66;105579;277;39947;-74
2023/04/30 05:59:55;;;;;;;14.70;12.50;;;;;;;11.80;68.02;100634.91;105593;277;39383;-74
2023/04/30 06:02:28;;;;;;;14.90;13.10;;;;;;;11.83;67.96;100639.56;105279;277;39344;-74
2023/04/30 06:05:02;;;;;;;17.20;13.50;;;;;;;11.97;68.39;100640.92;105602;277;38231;-74
2023/04/30 06:07:36;;;;;;;16.00;12.30;;;;;;;12.25;68.80;100641.54;105645;277;38266;-74
2023/04/30 06:10:12;;;;;;;15.50;12.80;;;;;;;12.44;67.91;100646.02;105634;277;38345;-74
2023/04/30 06:12:46;;;;;;;16.40;12.20;;;;;;;12.87;69.47;100644.55;106001;277;38727;-74
2023/04/30 06:15:20;;;;;;;13.20;11.40;;;;;;;13.82;68.75;100637.31;106027;277;38509;-74
2023/04/30 06:17:54;;;;;;;14.80;11.50;;;;;;;14.33;66.46;100643.43;105679;277;39679;-74
2023/04/30 06:20:28;;;;;;;15.20;11.70;;;;;;;14.48;64.09;100646.73;105661;277;38448;-75
2023/04/30 06:23:02;;;;;;;12.70;11.40;;;;;;;14.38;62.93;100655.14;105999;277;38549;-75
2023/04/30 06:25:36;;;;;;;14.40;11.50;;;;;;;14.19;62.02;100658.00;105632;277;39935;-73
2023/04/30 06:28:10;;;;;;;14.50;11.30;;;;;;;14.21;62.83;100662.80;105983;277;38870;-74
2023/04/30 06:30:45;;;;;;;14.30;11.50;;;;;;;14.34;62.00;100662.86;105610;277;39613;-74
2023/04/30 06:33:19;;;;;;;12.80;10.50;;;;;;;14.43;60.44;100664.36;105592;277;39644;-74
2023/04/30 06:35:54;;;;;;;12.30;10.30;;;;;;;14.45;60.32;100665.14;106015;277;39450;-73
2023/04/30 06:38:28;;;;;;;11.70;8.90;;;;;;;15.19;61.49;100658.42;105713;277;39310;-73
2023/04/30 06:41:02;;;;;;;9.90;8.50;;;;;;;16.51;58.84;100660.84;105538;277;174016;-73
2023/04/30 06:43:36;;;;;;;11.90;7.20;;;;;;;17.76;54.94;100654.50;105978;277;39544;-73
2023/04/30 06:46:10;;;;;;;9.00;6.40;;;;;;;18.83;49.68;100654.88;105598;277;40364;-75
2023/04/30 06:48:43;;;;;;;6.80;4.70;;;;;;;19.68;46.59;100651.66;105619;277;38222;-75
2023/04/30 06:51:17;;;;;;;9.10;4.70;;;;;;;20.54;43.90;100652.85;106006;277;40262;-76
2023/04/30 06:53:51;;;;;;;6.80;4.80;;;;;;;21.35;41.60;100653.52;106043;277;38576;-77
2023/04/30 06:56:25;;;;;;;8.10;5.00;;;;;;;21.87;38.92;100647.59;105662;277;38434;-75
2023/04/30 06:59:03;;;;;;;6.90;5.50;;;;;;;22.29;38.04;100648.81;105643;277;38450;-75
2023/04/30 07:01:37;;;;;;;6.30;5.20;;;;;;;22.71;36.93;100646.94;105617;277;39963;-75
2023/04/30 07:04:11;;;;;;;7.00;5.00;;;;;;;22.90;36.38;100649.08;105999;277;39675;-75
2023/04/30 07:06:46;;;;;;;6.90;3.80;;;;;;;22.65;36.15;100656.97;105603;277;38236;-75
2023/04/30 07:09:20;;;;;;;7.90;3.40;;;;;;;22.39;35.42;100657.95;106011;277;39669;-77
2023/04/30 07:11:55;;;;;;;6.70;2.90;;;;;;;21.86;34.71;100663.51;105392;279;39211;-74
2023/04/30 07:14:28;;;;;;;4.10;2.90;;;;;;;21.47;34.88;100664.52;106030;277;38255;-74
2023/04/30 07:17:03;;;;;;;3.90;3.00;;;;;;;21.68;34.50;100665.46;105657;277;39482;-77
2023/04/30 07:19:37;;;;;;;7.30;3.20;;;;;;;22.05;33.60;100666.73;106047;277;39163;-75
2023/04/30 07:22:11;;;;;;;6.90;3.10;;;;;;;22.68;34.52;100663.02;105613;277;39720;-74
2023/04/30 07:24:45;;;;;;;5.50;2.80;;;;;;;23.41;31.81;100659.48;105790;277;173534;-76
2023/04/30 07:27:19;;;;;;;5.70;3.20;;;;;;;24.00;32.02;100663.27;105635;277;38855;-78
2023/04/30 07:29:53;;;;;;;5.50;3.50;;;;;;;24.57;31.07;100666.67;105626;277;38810;-76
2023/04/30 07:32:27;;;;;;;5.20;3.30;;;;;;;25.07;30.14;100668.14;105423;277;38346;-75
2023/04/30 07:35:01;;;;;;;5.20;3.50;;;;;;;25.60;28.80;100666.29;106023;277;38498;-76
2023/04/30 07:37:35;;;;;;;5.30;3.30;;;;;;;25.83;28.45;100667.33;105996;277;38783;-77
2023/04/30 07:40:13;;;;;;;6.10;3.90;;;;;;;26.08;28.28;100666.79;105641;277;38960;-75
2023/04/30 07:42:47;;;;;;;5.40;2.90;;;;;;;26.48;27.11;100665.16;105640;277;38428;-75
2023/04/30 07:45:21;;;;;;;5.50;2.80;;;;;;;27.01;27.26;100670.55;106025;277;38907;-74
2023/04/30 07:47:55;;;;;;;4.20;2.60;;;;;;;27.29;25.96;100681.11;105624;277;39647;-74
2023/04/30 07:50:32;;;;;;;4.50;2.80;;;;;;;27.33;24.87;100679.55;106046;277;38501;-74
2023/04/30 07:53:08;;;;;;;3.90;3.10;;;;;;;27.26;24.81;100684.04;105616;277;38788;-74
2023/04/30 07:55:42;;;;;;;4.30;3.10;;;;;;;27.59;25.13;100684.15;106032;277;39164;-75
2023/04/30 07:58:16;;;;;;;4.10;3.20;;;;;;;27.89;24.39;100693.28;105421;277;38671;-75
2023/04/30 08:00:50;;;;;;;3.30;2.90;;;;;;;28.23;24.08;100694.79;105675;277;39408;-75
2023/04/30 08:03:24;;;;;;;6.10;3.20;;;;;;;28.53;23.02;100697.27;105625;277;38327;-75
2023/04/30 08:05:58;;;;;;;4.00;2.70;;;;;;;28.34;22.15;100699.16;105648;277;39895;-75
2023/04/30 08:08:32;;;;;;;4.20;2.60;;;;;;;28.05;22.49;100697.44;106035;277;39399;-75
2023/04/30 08:11:06;;;;;;;6.20;3.00;;;;;;;28.19;22.84;100697.03;105654;277;38262;-78
2023/04/30 08:13:41;;;;;;;4.90;2.20;;;;;;;28.58;22.21;100703.48;104910;277;883888;-78
2023/04/30 08:16:15;;;;;;;3.50;2.50;;;;;;;28.77;21.01;100707.42;105629;277;38349;-77
2023/04/30 08:18:50;;;;;;;3.90;2.40;;;;;;;28.51;20.61;100705.21;105369;277;38395;-77
2023/04/30 08:21:27;;;;;;;5.20;2.70;;;;;;;28.41;21.06;100704.58;105613;277;38623;-76
2023/04/30 08:24:01;;;;;;;3.60;2.90;;;;;;;28.53;20.67;100708.69;105606;277;38378;-76
2023/04/30 08:26:35;;;;;;;4.90;2.90;;;;;;;28.44;21.33;100709.13;106016;277;38240;-76
2023/04/30 08:29:09;;;;;;;4.40;2.50;;;;;;;28.92;21.46;100711.52;105387;277;39657;-74
2023/04/30 08:31:43;;;;;;;3.60;2.70;;;;;;;29.39;20.21;100712.77;106065;277;39641;-75
2023/04/30 08:34:20;;;;;;;6.20;2.80;;;;;;;29.51;20.51;100705.00;105615;277;39467;-75
2023/04/30 08:36:54;;;;;;;4.70;2.40;;;;;;;29.74;20.23;100713.91;105642;277;38650;-76
2023/04/30 08:39:28;;;;;;;3.40;2.80;;;;;;;29.75;19.49;100718.26;105645;277;39443;-81
2023/04/30 08:42:04;;;;;;;4.70;3.00;;;;;;;29.80;20.01;100716.98;105645;277;38263;-77
2023/04/30 08:44:42;;;;;;;3.60;2.50;;;;;;;30.07;19.82;100715.28;105636;277;39482;-75
2023/04/30 08:47:17;;;;;;;2.40;2.10;;;;;;;30.32;19.02;100725.59;106070;277;38269;-75
2023/04/30 08:49:50;;;;;;;3.80;2.30;;;;;;;30.51;18.00;100729.90;105652;277;38289;-75
2023/04/30 08:52:24;;;;;;;4.80;2.30;;;;;;;30.79;18.00;100727.35;105642;277;38372;-77
2023/04/30 08:54:59;;;;;;;3.90;1.90;;;;;;;31.05;17.99;100724.25;105624;277;38413;-75
2023/04/30 08:57:33;;;;;;;4.00;2.20;;;;;;;31.22;17.63;100727.17;105353;279;39290;-74
2023/04/30 09:00:09;;;;;;;3.10;2.60;;;;;;;31.51;17.61;100732.91;105621;277;38824;-77
2023/04/30 09:02:45;;;;;;;3.60;1.90;;;;;;;31.74;17.23;100733.39;105654;277;39388;-77
2023/04/30 09:05:19;;;;;;;3.40;2.20;;;;;;;31.51;16.39;100735.77;106055;277;38825;-75
2023/04/30 09:07:53;;;;;;;3.20;2.20;;;;;;;30.99;16.06;100737.20;105597;277;39473;-74
2023/04/30 09:10:28;;;;;;;4.20;2.30;;;;;;;30.60;16.75;100743.06;105581;277;38824;-74
2023/04/30 09:13:10;;;;;;;4.10;1.80;;;;;;;30.38;16.52;100741.69;106028;277;38697;-74
2023/04/30 09:15:45;;;;;;;2.90;1.80;;;;;;;30.13;16.14;100749.94;105611;277;39425;-75
2023/04/30 09:18:20;;;;;;;3.90;1.90;;;;;;;29.60;16.01;100754.53;105571;277;38900;-76
2023/04/30 09:21:01;;;;;;;2.90;1.90;;;;;;;29.05;16.37;100756.13;106022;277;38381;-75
2023/04/30 09:23:35;;;;;;;3.70;2.20;;;;;;;28.56;16.65;100753.38;105629;277;38506;-75
2023/04/30 09:26:10;;;;;;;4.20;2.30;;;;;;;28.25;18.14;100752.08;105622;277;38325;-75
2023/04/30 09:28:57;;;;;;;3.40;1.80;;;;;;;28.02;18.88;100748.02;105618;277;38320;-75
2023/04/30 09:31:31;;;;;;;4.00;1.90;;;;;;;27.80;18.04;100765.03;105579;277;38228;-74
2023/04/30 09:34:06;;;;;;;5.40;2.10;;;;;;;27.30;18.17;100762.16;105372;279;39420;-74
2023/04/30 09:36:53;;;;;;;2.60;2.00;;;;;;;26.92;18.76;100759.70;104778;279;605419;-76
2023/04/30 09:39:29;;;;;;;4.20;2.20;;;;;;;26.45;19.61;100760.85;105616;277;38508;-75
2023/04/30 09:42:12;;;;;;;4.50;2.00;;;;;;;26.11;20.17;100758.56;105371;277;38282;-75
2023/04/30 09:44:46;;;;;;;2.70;2.10;;;;;;;25.72;20.29;100775.56;105437;278;38369;-74
2023/04/30 09:47:20;;;;;;;5.60;2.40;;;;;;;25.09;20.13;100773.73;105413;279;39406;-74
2023/04/30 09:49:54;;;;;;;4.20;2.60;;;;;;;24.35;20.22;100763.91;104770;278;894845;-75
2023/04/30 09:52:29;;;;;;;2.60;2.10;;;;;;;23.62;21.28;100769.61;105452;279;38262;-76
2023/04/30 09:55:03;;;;;;;3.60;2.50;;;;;;;23.24;23.09;100777.85;105280;279;38389;-74
2023/04/30 09:57:37;;;;;;;4.00;1.90;;;;;;;22.99;22.12;100776.02;105392;279;38505;-73
2023/04/30 10:00:14;;;;;;;4.20;2.20;;;;;;;22.63;22.24;100768.67;105439;278;39993;-73
2023/04/30 10:02:48;;;;;;;4.50;2.30;;;;;;;22.52;23.38;100769.60;105386;278;38646;-73
2023/04/30 10:05:22;;;;;;;2.90;1.70;;;;;;;22.37;23.52;100772.04;105411;278;39639;-75
2023/04/30 10:07:56;;;;;;;3.00;1.90;;;;;;;22.07;23.72;100768.89;105395;278;38246;-75
2023/04/30 10:10:31;;;;;;;4.50;2.10;;;;;;;21.81;24.02;100775.59;105136;279;173872;-72
2023/04/30 10:13:07;;;;;;;2.70;1.60;;;;;;;21.50;24.07;100765.64;105390;267;39118;-72
2023/04/30 10:15:43;;;;;;;4.40;1.50;;;;;;;21.40;24.32;100767.95;105851;278;38327;-76
2023/04/30 10:18:20;;;;;;;3.30;1.70;;;;;;;21.46;24.22;100767.55;105414;279;38366;-76
2023/04/30 10:20:54;;;;;;;5.50;1.50;;;;;;;21.33;23.86;100762.27;105448;278;40117;-75
2023/04/30 10:23:29;;;;;;;3.20;1.40;;;;;;;21.27;24.25;100764.88;105874;278;38595;-76
2023/04/30 10:26:03;;;;;;;3.70;1.40;;;;;;;21.12;24.19;100768.13;105847;279;38881;-75
2023/04/30 10:28:37;;;;;;;2.70;1.20;;;;;;;20.96;24.09;100771.46;105431;278;38574;-75
2023/04/30 10:31:12;;;;;;;2.40;1.50;;;;;;;20.74;23.65;100764.29;105411;278;38400;-73
2023/04/30 10:33:49;;;;;;;3.60;1.40;;;;;;;20.53;24.20;100772.15;105417;279;39956;-73
2023/04/30 10:36:29;;;;;;;2.10;1.30;;;;;;;20.20;24.54;100772.09;105459;278;39874;-74
2023/04/30 10:39:03;;;;;;;5.30;1.50;;;;;;;19.99;25.15;100764.88;105291;278;38233;-75
2023/04/30 10:41:37;;;;;;;3.50;1.30;;;;;;;20.03;25.07;100766.70;105430;278;39683;-73
2023/04/30 10:44:11;;;;;;;3.10;1.60;;;;;;;20.08;25.99;100764.63;105591;277;38258;-73
2023/04/30 10:46:45;;;;;;;4.00;1.40;;;;;;;20.24;25.94;100761.36;106032;277;39429;-76
2023/04/30 10:49:26;;;;;;;4.70;1.50;;;;;;;20.32;25.79;100758.78;105645;277;38427;-76
2023/04/30 10:52:02;;;;;;;2.00;1.30;;;;;;;20.22;24.59;100767.83;105614;277;40175;-75
2023/04/30 10:54:37;;;;;;;1.90;1.10;;;;;;;19.97;24.42;100762.95;106026;277;39676;-73
2023/04/30 10:57:16;;;;;;;3.10;1.50;;;;;;;19.76;24.25;100776.99;105637;277;38217;-73
2023/04/30 11:00:16;;;;;;;3.00;1.40;;;;;;;19.58;25.47;100778.02;106021;277;39871;-73
2023/04/30 11:02:50;;;;;;;2.10;1.20;;;;;;;19.35;25.77;100781.02;105645;277;39433;-73
2023/04/30 11:05:33;;;;;;;3.60;1.60;;;;;;;18.97;26.07;100782.31;106053;281;39621;-73
2023/04/30 11:08:07;;;;;;;4.10;2.00;;;;;;;18.72;27.22;100778.49;106015;277;38830;-73
2023/04/30 11:10:41;;;;;;;2.50;1.30;;;;;;;18.71;27.67;100777.86;105630;277;38604;-75
2023/04/30 11:13:15;;;;;;;2.80;1.80;;;;;;;18.82;27.96;100772.73;105345;277;39627;-75
2023/04/30 11:15:49;;;;;;;3.20;1.90;;;;;;;18.92;28.31;100770.63;105664;277;39944;-75
2023/04/30 11:18:23;;;;;;;3.20;1.40;;;;;;;19.05;28.08;100779.64;105661;277;39484;-74
2023/04/30 11:20:58;;;;;;;4.70;1.70;;;;;;;19.09;27.75;100776.59;106033;277;38284;-76
2023/04/30 11:23:34;;;;;;;4.80;1.40;;;;;;;19.11;27.28;100781.80;105620;277;38420;-76
2023/04/30 11:26:08;;;;;;;3.50;1.50;;;;;;;19.10;27.24;100783.40;105662;277;38263;-74
2023/04/30 11:28:50;;;;;;;2.30;1.30;;;;;;;19.10;27.20;100786.40;105657;277;38342;-74
2023/04/30 11:31:23;;;;;;;4.20;1.40;;;;;;;19.11;27.06;100784.23;106041;275;39419;-74
2023/04/30 11:33:59;;;;;;;2.40;1.30;;;;;;;19.19;27.67;100781.41;105650;277;38287;-74
2023/04/30 11:36:34;;;;;;;3.50;1.40;;;;;;;19.27;27.52;100783.48;105652;277;38218;-73
2023/04/30 11:39:08;;;;;;;5.10;1.30;;;;;;;19.27;26.77;100787.20;106046;277;38458;-74
2023/04/30 11:41:46;;;;;;;3.20;1.50;;;;;;;19.00;26.65;100791.67;105675;277;38522;-74
2023/04/30 11:44:30;;;;;;;2.70;1.40;;;;;;;18.63;26.35;100788.10;105659;277;38236;-74
2023/04/30 11:47:05;;;;;;;3.10;1.40;;;;;;;18.46;27.49;100790.05;105537;277;174021;-73
2023/04/30 11:49:39;;;;;;;3.20;1.30;;;;;;;18.44;27.94;100792.80;105660;277;40418;-75
2023/04/30 11:52:14;;;;;;;2.70;1.40;;;;;;;18.39;28.58;100793.52;105658;277;38265;-75
2023/04/30 11:54:49;;;;;;;3.30;1.40;;;;;;;18.38;28.41;100788.60;105665;277;38565;-74